Sct Zurich — V7NG2 — position and weather

sailwx.info

Track history (hours):
 
Tides and Currents Weather Stations Pressure Air Temp Water Temp Dewpoint Dewpoint Depression Visibility Wind Speed Wind Dir Waves Ship Positions

Sct Zurich

Last reported at 2015-Jul-05 14:21 UTC. Time now 2015-Jul-07 04:39 UTC.
Position N 01°15' E 104°03'.

Length 294 m; draft 8.2 m.

Type: Ship (hazmat cat D). MMSI: 538002956.

Date/timePositionNaut miles runAvg speedWind from/ knotsBaromVisibWave heightAir tempDewpointWater temp
2015-Jul-05 14:21N 01°15' E 104°03'1013.1
2015-Jul-05 13:33N 01°12' E 103°53'6 6.3
2015-Jul-05 12:33N 01°15' E 103°48'0 0.3
2015-Jul-05 11:33N 01°15' E 103°48'0 0.0
2015-Jul-05 07:33N 01°15' E 103°48'0 0.0
2015-Jul-05 06:27N 01°15' E 103°48'0 0.1
2015-Jul-05 05:33N 01°15' E 103°48'0 0.0
2015-Jul-05 03:15N 01°15' E 103°48'0 0.1
2015-Jul-05 02:30N 01°15' E 103°48'0 0.0
2015-Jul-05 01:27N 01°15' E 103°48'0 0.0
2015-Jul-05 00:33N 01°15' E 103°48'0 0.1
2015-Jul-04 23:23N 01°15' E 103°48'2 2.6
2015-Jul-04 22:29N 01°16' E 103°46'0 0.0
2015-Jul-04 21:29N 01°16' E 103°46'0 0.0
2015-Jul-04 20:32N 01°16' E 103°46'0 0.0
2015-Jul-04 19:32N 01°16' E 103°46'0 0.0
2015-Jul-04 18:29N 01°16' E 103°46'0 0.0
2015-Jul-04 17:29N 01°16' E 103°46'0 0.0
2015-Jul-04 16:32N 01°16' E 103°46'0 0.0
2015-Jul-04 15:29N 01°16' E 103°46'0 0.0
2015-Jul-04 14:32N 01°16' E 103°46'0 0.0
2015-Jul-04 13:32N 01°16' E 103°46'0 0.0
2015-Jul-04 12:32N 01°16' E 103°46'0 0.0
2015-Jul-04 11:26N 01°16' E 103°46'0 0.0
2015-Jul-04 10:28N 01°16' E 103°46'0 0.0
2015-Jul-04 09:28N 01°16' E 103°46'0 0.0
2015-Jul-04 08:31N 01°16' E 103°46'0 0.0
2015-Jul-04 07:28N 01°16' E 103°46'0 0.0
2015-Jul-04 06:28N 01°16' E 103°46'0 0.0
2015-Jul-04 05:32N 01°16' E 103°46'0 0.0
2015-Jul-04 04:32N 01°16' E 103°46'0 0.0
2015-Jul-04 03:32N 01°16' E 103°46'0 0.0
2015-Jul-04 02:29N 01°16' E 103°46'0 0.0
2015-Jul-04 01:29N 01°16' E 103°46'0 0.0
2015-Jul-04 00:32N 01°16' E 103°46'0 0.0
2015-Jul-03 23:29N 01°16' E 103°46'0 0.0
2015-Jul-03 22:31N 01°16' E 103°46'0 0.1
2015-Jul-03 21:31N 01°16' E 103°46'0 0.1
2015-Jul-03 20:31N 01°16' E 103°46'0 0.0
2015-Jul-03 19:31N 01°16' E 103°46'0 0.0
2015-Jul-03 18:31N 01°16' E 103°46'0 0.0
2015-Jul-03 17:31N 01°16' E 103°46'0 0.0
2015-Jul-03 16:28N 01°16' E 103°46'0 0.0
2015-Jul-03 15:31N 01°16' E 103°46'0 0.0
2015-Jul-03 14:33N 01°16' E 103°46'4 4.1
2015-Jul-03 13:33N 01°13' E 103°48'8 8.4
2015-Jul-03 12:33N 01°14' E 103°57'10 9.5
2015-Jul-03 11:33N 01°17' E 104°06'  
Track history (hours):
 
Tides and Currents Weather Stations Pressure Air Temp Water Temp Dewpoint Dewpoint Depression Visibility Wind Speed Wind Dir Waves Ship Positions

Sct Zurich

Last reported at 2015-Jul-05 14:21 UTC. Time now 2015-Jul-07 04:39 UTC.
Position N 01°15' E 104°03'.

Length 294 m; draft 8.2 m.

Type: Ship (hazmat cat D). MMSI: 538002956.

Date/timePositionNaut miles runAvg speedWind from/ knotsBaromVisibWave heightAir tempDewpointWater temp
2015-Jul-05 14:21N 01°15' E 104°03'1013.1
2015-Jul-05 13:33N 01°12' E 103°53'6 6.3
2015-Jul-05 12:33N 01°15' E 103°48'0 0.3
2015-Jul-05 11:33N 01°15' E 103°48'0 0.0
2015-Jul-05 07:33N 01°15' E 103°48'0 0.0
2015-Jul-05 06:27N 01°15' E 103°48'0 0.1
2015-Jul-05 05:33N 01°15' E 103°48'0 0.0
2015-Jul-05 03:15N 01°15' E 103°48'0 0.1
2015-Jul-05 02:30N 01°15' E 103°48'0 0.0
2015-Jul-05 01:27N 01°15' E 103°48'0 0.0
2015-Jul-05 00:33N 01°15' E 103°48'0 0.1
2015-Jul-04 23:23N 01°15' E 103°48'2 2.6
2015-Jul-04 22:29N 01°16' E 103°46'0 0.0
2015-Jul-04 21:29N 01°16' E 103°46'0 0.0
2015-Jul-04 20:32N 01°16' E 103°46'0 0.0
2015-Jul-04 19:32N 01°16' E 103°46'0 0.0
2015-Jul-04 18:29N 01°16' E 103°46'0 0.0
2015-Jul-04 17:29N 01°16' E 103°46'0 0.0
2015-Jul-04 16:32N 01°16' E 103°46'0 0.0
2015-Jul-04 15:29N 01°16' E 103°46'0 0.0
2015-Jul-04 14:32N 01°16' E 103°46'0 0.0
2015-Jul-04 13:32N 01°16' E 103°46'0 0.0
2015-Jul-04 12:32N 01°16' E 103°46'0 0.0
2015-Jul-04 11:26N 01°16' E 103°46'0 0.0
2015-Jul-04 10:28N 01°16' E 103°46'0 0.0
2015-Jul-04 09:28N 01°16' E 103°46'0 0.0
2015-Jul-04 08:31N 01°16' E 103°46'0 0.0
2015-Jul-04 07:28N 01°16' E 103°46'0 0.0
2015-Jul-04 06:28N 01°16' E 103°46'0 0.0
2015-Jul-04 05:32N 01°16' E 103°46'0 0.0
2015-Jul-04 04:32N 01°16' E 103°46'0 0.0
2015-Jul-04 03:32N 01°16' E 103°46'0 0.0
2015-Jul-04 02:29N 01°16' E 103°46'0 0.0
2015-Jul-04 01:29N 01°16' E 103°46'0 0.0
2015-Jul-04 00:32N 01°16' E 103°46'0 0.0
2015-Jul-03 23:29N 01°16' E 103°46'0 0.0
2015-Jul-03 22:31N 01°16' E 103°46'0 0.1
2015-Jul-03 21:31N 01°16' E 103°46'0 0.1
2015-Jul-03 20:31N 01°16' E 103°46'0 0.0
2015-Jul-03 19:31N 01°16' E 103°46'0 0.0
2015-Jul-03 18:31N 01°16' E 103°46'0 0.0
2015-Jul-03 17:31N 01°16' E 103°46'0 0.0
2015-Jul-03 16:28N 01°16' E 103°46'0 0.0
2015-Jul-03 15:31N 01°16' E 103°46'0 0.0
2015-Jul-03 14:33N 01°16' E 103°46'4 4.1
2015-Jul-03 13:33N 01°13' E 103°48'8 8.4
2015-Jul-03 12:33N 01°14' E 103°57'10 9.5
2015-Jul-03 11:33N 01°17' E 104°06'  

Dump ship's entire track history